Time;durP1;ratioP1;P1;durP2;ratioP2;P2;SDS_P1;SDS_P2;PMS_P1;PMS_P2;Temp;Humidity;BMP_temperature;BMP_pressure;BME280_temperature;BME280_humidity;BME280_pressure;Samples;Min_cycle;Max_cycle;Signal;HPM_P1;HPM_P2
2022/06/14 00:00:54;;;;;;;;;;;12.40;99.90;;;;;;5031330;28;20048;-72
2022/06/14 00:03:30;;;;;;;7.55;2.10;;;12.40;99.90;;;;;;5039171;28;19920;-72
2022/06/14 00:06:03;;;;;;;4.22;2.17;;;12.40;99.90;;;;;;5037340;28;20050;-72
2022/06/14 00:08:29;;;;;;;6.15;2.17;;;12.40;99.90;;;;;;5042763;28;20065;-72
2022/06/14 00:10:57;;;;;;;7.82;2.53;;;12.40;99.90;;;;;;5037679;28;20071;-72
2022/06/14 00:13:24;;;;;;;5.18;2.22;;;12.40;99.90;;;;;;5047275;28;20175;-72
2022/06/14 00:15:50;;;;;;;6.43;2.05;;;12.40;99.90;;;;;;5043915;28;20040;-72
2022/06/14 00:18:17;;;;;;;4.28;1.67;;;12.30;99.90;;;;;;5034934;28;21055;-72
2022/06/14 00:20:44;;;;;;;7.43;1.70;;;12.30;99.90;;;;;;5042875;28;20178;-72
2022/06/14 00:23:10;;;;;;;4.38;1.95;;;12.40;99.90;;;;;;5043541;28;20135;-73
2022/06/14 00:25:39;;;;;;;;;;;12.30;99.90;;;;;;5054289;28;20407;-72
2022/06/14 00:28:06;;;;;;;4.93;1.70;;;12.30;99.90;;;;;;5048536;28;19916;-72
2022/06/14 00:30:33;;;;;;;4.75;1.88;;;12.30;99.90;;;;;;5043065;28;20511;-72
2022/06/14 00:32:59;;;;;;;4.05;1.95;;;12.20;99.90;;;;;;5045961;28;20089;-72
2022/06/14 00:35:25;;;;;;;6.18;1.65;;;12.20;99.90;;;;;;5042216;28;20545;-72
2022/06/14 00:37:50;;;;;;;5.93;2.05;;;12.20;99.90;;;;;;5013911;28;21772;-72
2022/06/14 00:40:21;;;;;;;4.57;1.70;;;12.20;99.90;;;;;;5033859;28;20065;-72
2022/06/14 00:42:47;;;;;;;6.75;2.10;;;12.20;99.90;;;;;;5026883;28;22465;-72
2022/06/14 00:45:21;;;;;;;8.73;2.70;;;12.10;99.90;;;;;;5015962;28;21149;-72
2022/06/14 00:47:50;;;;;;;6.25;2.03;;;12.10;99.90;;;;;;5022961;28;20784;-72
2022/06/14 00:50:19;;;;;;;5.72;1.88;;;12.10;99.90;;;;;;5017714;28;21417;-72
2022/06/14 00:52:51;;;;;;;8.13;1.88;;;12.10;99.90;;;;;;5035198;28;20057;-72
2022/06/14 00:55:24;;;;;;;4.20;1.95;;;12.10;99.90;;;;;;5043529;28;20099;-72
2022/06/14 00:57:57;;;;;;;5.25;2.38;;;12.00;99.90;;;;;;5026063;28;20062;-72
2022/06/14 01:00:30;;;;;;;6.72;2.08;;;12.00;99.90;;;;;;5024524;28;20101;-72
2022/06/14 01:03:03;;;;;;;7.95;2.17;;;12.00;99.90;;;;;;5037494;28;20037;-72
2022/06/14 01:08:22;;;;;;;5.82;1.75;;;11.90;99.90;;;;;;5043855;28;20443;-72
2022/06/14 01:10:48;;;;;;;6.60;2.35;;;11.90;99.90;;;;;;5037786;28;20547;-72
2022/06/14 01:13:17;;;;;;;7.45;2.30;;;11.90;99.90;;;;;;5048873;28;20029;-72
2022/06/14 01:15:44;;;;;;;6.05;2.20;;;11.80;99.90;;;;;;5046170;28;20029;-72
2022/06/14 01:18:12;;;;;;;4.22;1.73;;;11.80;99.90;;;;;;5042890;28;20433;-72
2022/06/14 01:20:39;;;;;;;4.47;1.83;;;11.80;99.90;;;;;;5027534;28;20037;-72
2022/06/14 01:23:08;;;;;;;9.45;1.92;;;11.80;99.90;;;;;;5040534;28;20034;-72
2022/06/14 01:25:40;;;;;;;6.05;2.05;;;11.80;99.90;;;;;;5017255;28;20033;-72
2022/06/14 01:28:06;;;;;;;5.10;1.80;;;11.80;99.90;;;;;;5030511;28;20041;-72
2022/06/14 01:30:36;;;;;;;6.20;1.70;;;11.70;99.90;;;;;;5042619;28;20498;-72
2022/06/14 01:33:02;;;;;;;5.25;2.03;;;11.70;99.90;;;;;;5031925;28;20053;-72
2022/06/14 01:35:34;;;;;;;9.20;1.90;;;11.70;99.90;;;;;;5030850;28;20056;-72
2022/06/14 01:38:05;;;;;;;6.82;1.58;;;11.70;99.90;;;;;;5031633;28;20081;-72
2022/06/14 01:41:06;;;;;;;4.80;1.80;;;11.60;99.90;;;;;;5036492;28;20045;-72
2022/06/14 01:43:38;;;;;;;7.00;2.20;;;11.60;99.90;;;;;;5046320;28;20472;-72
2022/06/14 01:46:15;;;;;;;6.78;1.92;;;11.60;99.90;;;;;;5039208;28;20053;-72
2022/06/14 01:51:50;;;;;;;7.30;1.88;;;11.50;99.90;;;;;;5038025;28;20490;-72
2022/06/14 01:52:02;;;;;;;5.45;1.95;;;11.50;99.90;;;;;;5033801;28;20071;-72
2022/06/14 01:54:46;;;;;;;8.73;2.10;;;11.50;99.90;;;;;;5037058;28;20496;-72
2022/06/14 01:57:31;;;;;;;3.60;1.75;;;11.50;99.90;;;;;;5017966;28;20420;-72
2022/06/14 02:00:05;;;;;;;4.68;2.22;;;11.50;99.90;;;;;;5028094;28;20053;-72
2022/06/14 02:02:39;;;;;;;4.05;1.92;;;11.50;99.90;;;;;;5038889;28;20037;-72
2022/06/14 02:05:32;;;;;;;7.60;2.15;;;11.40;99.90;;;;;;5037546;28;20064;-72
2022/06/14 02:08:06;;;;;;;6.55;2.10;;;11.40;99.90;;;;;;5026907;28;20040;-72
2022/06/14 02:10:38;;;;;;;6.50;1.45;;;11.30;99.90;;;;;;5026784;28;20134;-72
2022/06/14 02:13:15;;;;;;;9.18;1.70;;;11.40;99.90;;;;;;5033448;28;20565;-72
2022/06/14 02:15:55;;;;;;;7.28;2.60;;;11.40;99.90;;;;;;5038529;28;20091;-72
2022/06/14 02:21:07;;;;;;;3.47;1.73;;;11.30;99.90;;;;;;5071188;28;20180;-71
2022/06/14 02:23:47;;;;;;;4.38;1.52;;;11.40;99.90;;;;;;5042733;28;20161;-71
2022/06/14 02:26:26;;;;;;;6.35;1.77;;;11.30;99.90;;;;;;5075084;28;20050;-70
2022/06/14 02:29:26;;;;;;;6.20;2.13;;;11.30;99.90;;;;;;5078872;28;20036;-70
2022/06/14 02:32:04;;;;;;;6.95;2.35;;;11.30;99.90;;;;;;5054532;28;20056;-71
2022/06/14 02:34:36;;;;;;;9.40;2.08;;;11.30;99.90;;;;;;5048739;28;20079;-71
2022/06/14 02:37:30;;;;;;;6.75;1.90;;;11.30;99.90;;;;;;5077795;28;20036;-71
2022/06/14 02:40:06;;;;;;;6.70;1.92;;;11.30;99.90;;;;;;5087548;28;20051;-71
2022/06/14 02:42:40;;;;;;;7.82;1.95;;;11.20;99.90;;;;;;5076613;28;20051;-71
2022/06/14 02:45:18;;;;;;;6.60;1.80;;;11.20;99.90;;;;;;5065850;28;20450;-71
2022/06/14 02:47:51;;;;;;;3.58;1.70;;;11.20;99.90;;;;;;5075002;28;20058;-70
2022/06/14 02:50:26;;;;;;;6.68;1.77;;;11.20;99.90;;;;;;5048911;28;20044;-71
2022/06/14 02:52:57;;;;;;;5.80;1.98;;;11.20;99.90;;;;;;5058068;28;21699;-71
2022/06/14 02:55:33;;;;;;;6.47;2.28;;;11.20;99.90;;;;;;5079218;28;20127;-70
2022/06/14 02:58:08;;;;;;;4.70;1.90;;;11.20;99.90;;;;;;5061514;28;20133;-71
2022/06/14 03:00:46;;;;;;;5.07;1.65;;;11.20;99.90;;;;;;5081199;28;20131;-71
2022/06/14 03:03:33;;;;;;;8.77;2.15;;;11.20;99.90;;;;;;5051538;28;20377;-71
2022/06/14 03:06:10;;;;;;;4.10;2.13;;;11.20;99.90;;;;;;5052697;28;20488;-71
2022/06/14 03:08:48;;;;;;;10.35;1.95;;;11.20;99.90;;;;;;5078769;28;21654;-71
2022/06/14 03:11:43;;;;;;;8.95;2.22;;;11.20;99.90;;;;;;5074401;28;20048;-70
2022/06/14 03:14:33;;;;;;;4.10;1.85;;;11.20;99.90;;;;;;5023976;28;20077;-71
2022/06/14 03:17:36;;;;;;;4.40;1.80;;;11.20;99.90;;;;;;5061476;28;20028;-71
2022/06/14 03:20:12;;;;;;;7.30;2.38;;;11.10;99.90;;;;;;5077607;28;20527;-71
2022/06/14 03:23:10;;;;;;;5.97;1.98;;;11.10;99.90;;;;;;5085087;28;20055;-71
2022/06/14 03:25:45;;;;;;;12.25;1.80;;;11.00;99.90;;;;;;5078345;28;20136;-70
2022/06/14 03:28:28;;;;;;;7.93;1.88;;;11.10;99.90;;;;;;5058332;28;20048;-71
2022/06/14 03:31:06;;;;;;;18.90;2.33;;;11.10;99.90;;;;;;5083263;28;20068;-71
2022/06/14 03:33:50;;;;;;;5.43;1.73;;;11.10;99.90;;;;;;5078469;28;20405;-71
2022/06/14 03:36:16;;;;;;;10.93;1.80;;;11.00;99.90;;;;;;5066949;28;20043;-71
2022/06/14 03:38:57;;;;;;;7.00;1.98;;;11.00;99.90;;;;;;5076948;28;20111;-71
2022/06/14 03:41:26;;;;;;;7.03;2.17;;;11.00;99.90;;;;;;5085436;28;20155;-70
2022/06/14 03:43:56;;;;;;;4.85;2.00;;;11.00;99.90;;;;;;5066844;28;20075;-71
2022/06/14 03:46:21;;;;;;;5.82;1.77;;;11.10;99.90;;;;;;5082203;28;20080;-70
2022/06/14 03:48:51;;;;;;;4.27;2.03;;;11.00;99.90;;;;;;5076993;28;20049;-71
2022/06/14 03:51:20;;;;;;;4.88;1.83;;;11.00;99.90;;;;;;5073877;28;20058;-71
2022/06/14 03:54:14;;;;;;;8.23;1.92;;;11.00;99.90;;;;;;5073887;28;20081;-70
2022/06/14 03:57:13;;;;;;;5.80;2.08;;;11.00;99.90;;;;;;5050808;28;20044;-71
2022/06/14 03:59:51;;;;;;;6.50;2.03;;;11.00;99.90;;;;;;5054673;28;20035;-70
2022/06/14 04:02:53;;;;;;;4.82;1.90;;;11.00;99.90;;;;;;5078858;28;20132;-71
2022/06/14 04:05:47;;;;;;;5.90;2.10;;;11.00;99.90;;;;;;5074658;28;20506;-71
2022/06/14 04:08:34;;;;;;;3.83;1.65;;;11.00;99.90;;;;;;5063573;28;20067;-71
2022/06/14 04:11:05;;;;;;;6.97;2.65;;;11.00;99.90;;;;;;5055991;28;20735;-71
2022/06/14 04:13:42;;;;;;;7.15;2.22;;;11.00;99.90;;;;;;5081793;28;20149;-71
2022/06/14 04:16:34;;;;;;;7.57;1.80;;;11.10;99.90;;;;;;5078611;28;20381;-71
2022/06/14 04:19:16;;;;;;;9.65;1.90;;;11.10;99.90;;;;;;5078467;28;20464;-71
2022/06/14 04:22:01;;;;;;;6.35;1.77;;;11.10;99.90;;;;;;5068712;28;20551;-71
2022/06/14 04:24:47;;;;;;;4.68;2.00;;;11.10;99.90;;;;;;5070645;28;20076;-71
2022/06/14 04:27:32;;;;;;;11.52;2.00;;;11.10;99.90;;;;;;5056534;28;20527;-70
2022/06/14 04:30:17;;;;;;;3.88;1.98;;;11.10;99.90;;;;;;5086114;28;20487;-70
2022/06/14 04:33:12;;;;;;;5.22;1.65;;;11.10;99.90;;;;;;5068813;28;20525;-70
2022/06/14 04:35:51;;;;;;;6.15;1.92;;;11.20;99.90;;;;;;5059685;28;20123;-71
2022/06/14 04:38:44;;;;;;;9.85;1.92;;;11.20;99.90;;;;;;5059955;28;20350;-70
2022/06/14 04:41:22;;;;;;;4.65;1.60;;;11.30;99.90;;;;;;5075965;28;20043;-70
2022/06/14 04:43:58;;;;;;;6.50;1.80;;;11.30;99.90;;;;;;5081234;28;20051;-70
2022/06/14 04:46:27;;;;;;;6.40;2.13;;;11.40;99.90;;;;;;5076417;28;20096;-70
2022/06/14 04:49:10;;;;;;;6.35;1.60;;;11.40;99.90;;;;;;5052641;28;20056;-70
2022/06/14 04:51:57;;;;;;;6.63;2.13;;;11.40;99.90;;;;;;5047464;28;20081;-70
2022/06/14 04:54:40;;;;;;;5.57;1.80;;;11.50;99.90;;;;;;5071138;28;20124;-70
2022/06/14 04:57:09;;;;;;;10.18;2.00;;;11.40;99.90;;;;;;5085805;28;20032;-70
2022/06/14 04:59:37;;;;;;;7.25;2.35;;;11.60;99.90;;;;;;5089263;28;20057;-70
2022/06/14 05:02:10;;;;;;;10.63;3.00;;;11.70;99.90;;;;;;5076447;28;20036;-70
2022/06/14 05:04:48;;;;;;;4.75;1.77;;;11.70;99.90;;;;;;5053760;28;20490;-71
2022/06/14 05:07:46;;;;;;;8.15;2.28;;;11.80;99.90;;;;;;5079572;28;20040;-76
2022/06/14 05:10:37;;;;;;;5.78;1.83;;;11.80;99.90;;;;;;5072487;28;20119;-73
2022/06/14 05:13:11;;;;;;;14.55;2.55;;;11.90;99.90;;;;;;5058205;28;20040;-75
2022/06/14 05:15:53;;;;;;;5.18;2.05;;;11.90;99.90;;;;;;5075211;28;20047;-72
2022/06/14 05:18:29;;;;;;;4.20;2.03;;;12.00;99.90;;;;;;5079678;28;20039;-73
2022/06/14 05:21:08;;;;;;;5.93;1.80;;;12.10;99.90;;;;;;5070024;28;20044;-73
2022/06/14 05:23:45;;;;;;;7.65;1.92;;;12.10;99.90;;;;;;5071493;28;20128;-73
2022/06/14 05:26:29;;;;;;;4.60;1.95;;;12.20;99.90;;;;;;5058647;28;20393;-73
2022/06/14 05:29:18;;;;;;;10.90;1.85;;;12.20;99.90;;;;;;5063593;28;20118;-72
2022/06/14 05:31:51;;;;;;;7.90;1.92;;;12.30;99.90;;;;;;5060724;28;20105;-73
2022/06/14 05:34:38;;;;;;;3.97;1.60;;;12.30;99.90;;;;;;5057877;28;20127;-72
2022/06/14 05:37:26;;;;;;;5.70;2.33;;;12.40;99.90;;;;;;5075493;28;20044;-71
2022/06/14 05:40:26;;;;;;;3.38;1.50;;;12.40;99.90;;;;;;5086883;28;20044;-74
2022/06/14 05:43:01;;;;;;;5.35;1.80;;;12.50;99.90;;;;;;5065647;28;20031;-76
2022/06/14 05:45:29;;;;;;;7.25;2.10;;;12.50;99.90;;;;;;5082332;28;20134;-75
2022/06/14 05:48:05;;;;;;;5.35;1.60;;;12.60;99.90;;;;;;5058552;28;20136;-71
2022/06/14 05:50:39;;;;;;;7.60;2.20;;;12.70;99.90;;;;;;5046757;28;20093;-71
2022/06/14 05:53:19;;;;;;;6.20;1.60;;;12.70;99.90;;;;;;5074404;28;20138;-73
2022/06/14 05:56:08;;;;;;;5.60;1.90;;;12.80;99.90;;;;;;5065355;28;20052;-73
2022/06/14 05:58:40;;;;;;;4.07;1.92;;;12.90;99.90;;;;;;5085121;28;20040;-77
2022/06/14 06:01:30;;;;;;;4.32;1.58;;;12.90;99.90;;;;;;5081284;28;20484;-73
2022/06/14 06:04:09;;;;;;;6.47;1.48;;;13.00;99.90;;;;;;5053877;28;20040;-72
2022/06/14 06:06:48;;;;;;;4.53;1.70;;;13.10;99.90;;;;;;5073724;28;20040;-74
2022/06/14 06:09:30;;;;;;;4.75;1.40;;;13.20;99.90;;;;;;5085137;28;20047;-76
2022/06/14 06:12:17;;;;;;;4.05;1.52;;;13.30;99.90;;;;;;5061921;28;20039;-75
2022/06/14 06:14:57;;;;;;;6.85;1.60;;;13.40;99.90;;;;;;5082621;28;20523;-71
2022/06/14 06:17:39;;;;;;;5.65;1.13;;;13.40;99.90;;;;;;5069949;28;20044;-72
2022/06/14 06:20:09;;;;;;;3.28;0.82;;;13.50;99.90;;;;;;5068836;28;20485;-72
2022/06/14 06:22:58;;;;;;;10.65;1.42;;;13.60;99.90;;;;;;5072671;28;20047;-72
2022/06/14 06:25:28;;;;;;;6.20;1.40;;;13.70;99.90;;;;;;5073039;28;20457;-75
2022/06/14 06:28:05;;;;;;;4.55;1.30;;;13.80;99.90;;;;;;5060294;28;20083;-76
2022/06/14 06:30:38;;;;;;;5.28;1.33;;;13.70;99.90;;;;;;5081781;28;20062;-70
2022/06/14 06:33:06;;;;;;;5.55;1.20;;;13.80;99.90;;;;;;5069417;28;20036;-73
2022/06/14 06:35:53;;;;;;;4.63;0.90;;;13.90;99.90;;;;;;5078999;28;20082;-73
2022/06/14 06:38:31;;;;;;;4.47;1.05;;;13.90;99.90;;;;;;5059813;28;20036;-71
2022/06/14 06:43:52;;;;;;;4.43;0.98;;;14.10;99.90;;;;;;5080538;28;20515;-72
2022/06/14 06:46:22;;;;;;;2.50;1.02;;;14.10;99.90;;;;;;5085121;28;20079;-72
2022/06/14 06:48:56;;;;;;;4.95;1.30;;;14.20;99.90;;;;;;5082918;28;20044;-71
2022/06/14 06:51:30;;;;;;;3.72;1.10;;;14.20;99.90;;;;;;5063971;28;20075;-72
2022/06/14 06:54:10;;;;;;;4.35;1.30;;;14.30;99.90;;;;;;5060438;28;20032;-72
2022/06/14 06:56:40;;;;;;;5.63;1.15;;;14.30;99.90;;;;;;5076541;28;20550;-72
2022/06/14 06:59:25;;;;;;;6.13;1.20;;;14.40;99.90;;;;;;5080474;28;20679;-71
2022/06/14 07:01:54;;;;;;;6.10;1.35;;;14.50;99.90;;;;;;5073002;28;20040;-71
2022/06/14 07:07:13;;;;;;;2.13;0.90;;;14.70;99.90;;;;;;5063890;28;20114;-72
2022/06/14 07:10:11;;;;;;;3.60;1.15;;;14.70;99.90;;;;;;5082058;28;20357;-71
2022/06/14 07:12:54;;;;;;;6.60;1.08;;;14.70;99.90;;;;;;5061395;28;20052;-71
2022/06/14 07:15:26;;;;;;;3.88;0.80;;;14.70;99.90;;;;;;5082616;28;20412;-71
2022/06/14 07:18:16;;;;;;;4.63;0.90;;;14.60;99.90;;;;;;5063545;28;20494;-70
2022/06/14 07:20:59;;;;;;;3.60;0.98;;;14.70;99.90;;;;;;5055293;28;20037;-71
2022/06/14 07:23:38;;;;;;;5.35;1.10;;;14.80;99.90;;;;;;5071749;28;20039;-72
2022/06/14 07:26:20;;;;;;;3.00;1.30;;;14.80;99.90;;;;;;5061025;28;20097;-71
2022/06/14 07:28:54;;;;;;;2.78;1.00;;;14.90;99.90;;;;;;5064214;28;20051;-71
2022/06/14 07:31:38;;;;;;;2.30;0.98;;;15.00;99.90;;;;;;5060985;28;20063;-70
2022/06/14 07:34:06;;;;;;;2.55;0.85;;;15.10;99.90;;;;;;5078735;28;20048;-70
2022/06/14 07:36:46;;;;;;;4.07;0.90;;;15.20;99.90;;;;;;5086840;28;20040;-71
2022/06/14 07:39:26;;;;;;;4.10;1.30;;;15.20;99.90;;;;;;5078774;28;20036;-70
2022/06/14 07:41:58;;;;;;;3.53;0.80;;;15.30;99.90;;;;;;5070115;28;20040;-71
2022/06/14 07:44:33;;;;;;;1.33;0.80;;;15.30;99.90;;;;;;5064685;28;20523;-70
2022/06/14 07:47:23;;;;;;;6.85;0.90;;;15.40;99.90;;;;;;5049030;28;20047;-71
2022/06/14 07:49:58;;;;;;;1.77;0.60;;;15.30;99.90;;;;;;5073671;28;20134;-70
2022/06/14 07:52:32;;;;;;;2.45;0.82;;;15.40;99.90;;;;;;5060228;28;20078;-70
2022/06/14 07:55:23;;;;;;;2.05;0.73;;;15.40;99.90;;;;;;5081366;28;20099;-70
2022/06/14 07:57:53;;;;;;;1.15;0.75;;;15.40;99.90;;;;;;5068311;28;20048;-71
2022/06/14 08:03:57;;;;;;;4.53;0.98;;;15.70;99.90;;;;;;5082526;28;20600;-70
2022/06/14 08:06:28;;;;;;;4.17;1.00;;;15.70;99.90;;;;;;5003609;28;20521;-70
2022/06/14 08:09:14;;;;;;;4.88;0.90;;;15.70;99.90;;;;;;5080849;28;20777;-70
2022/06/14 08:11:53;;;;;;;1.30;0.77;;;15.80;99.90;;;;;;5066352;28;20071;-70
2022/06/14 08:14:25;;;;;;;3.33;1.30;;;15.80;99.90;;;;;;5084799;28;20143;-70
2022/06/14 08:16:52;;;;;;;2.40;0.85;;;15.90;99.90;;;;;;5086798;28;20393;-67
2022/06/14 08:19:21;;;;;;;3.75;1.52;;;16.00;99.90;;;;;;5090807;22;20089;-82
2022/06/14 08:21:50;;;;;;;2.90;1.20;;;16.10;99.90;;;;;;5061728;28;20164;-84
2022/06/14 08:24:22;;;;;;;2.35;1.13;;;16.10;99.90;;;;;;5050755;28;20086;-84
2022/06/14 08:27:28;;;;;;;4.22;1.00;;;16.20;99.90;;;;;;5050526;28;20528;-83
2022/06/14 08:30:00;;;;;;;5.20;1.10;;;16.20;99.90;;;;;;5031316;28;20040;-83
2022/06/14 08:32:56;;;;;;;3.25;1.05;;;16.20;99.90;;;;;;5025796;28;20132;-86
2022/06/14 08:35:38;;;;;;;3.38;1.00;;;16.20;99.90;;;;;;5044967;28;20048;-86
2022/06/14 08:38:13;;;;;;;1.63;0.60;;;16.30;99.90;;;;;;5040546;28;20538;-85
2022/06/14 08:40:47;;;;;;;1.67;0.70;;;16.40;99.90;;;;;;5031402;28;20041;-86
2022/06/14 08:43:20;;;;;;;3.05;1.10;;;16.50;99.90;;;;;;5026037;28;20064;-86
2022/06/14 08:46:06;;;;;;;1.75;0.80;;;16.50;99.90;;;;;;5024678;28;20119;-86
2022/06/14 08:48:35;;;;;;;2.92;0.60;;;16.60;99.90;;;;;;5029667;28;20052;-86
2022/06/14 08:51:12;;;;;;;2.63;0.75;;;16.50;99.90;;;;;;5026319;28;20049;-85
2022/06/14 08:54:16;;;;;;;1.00;0.68;;;16.60;99.90;;;;;;5012101;28;20044;-86
2022/06/14 08:57:02;;;;;;;4.13;0.75;;;16.50;99.90;;;;;;5030510;28;20087;-86
2022/06/14 08:59:50;;;;;;;2.42;1.00;;;16.50;99.90;;;;;;5050450;28;20103;-86
2022/06/14 09:03:03;;;;;;;2.08;1.05;;;16.60;99.90;;;;;;5007790;28;20060;-86
2022/06/14 09:05:32;;;;;;;4.55;0.98;;;16.60;99.90;;;;;;5040846;28;20513;-86
2022/06/14 09:08:32;;;;;;;2.15;0.90;;;16.70;99.90;;;;;;5030371;28;20045;-86
2022/06/14 09:11:34;;;;;;;6.55;1.10;;;16.80;99.90;;;;;;5044510;28;20045;-85
2022/06/14 09:14:48;;;;;;;1.95;0.77;;;17.00;99.90;;;;;;5011011;28;20037;-86
2022/06/14 09:17:44;;;;;;;4.07;0.80;;;17.30;99.90;;;;;;4976007;28;20062;-86
2022/06/14 09:20:37;;;;;;;1.70;0.98;;;17.60;99.90;;;;;;5047344;28;20079;-85
2022/06/14 09:23:27;;;;;;;3.83;0.85;;;17.50;99.90;;;;;;5039718;28;20044;-86
2022/06/14 09:26:23;;;;;;;1.42;0.80;;;17.50;99.90;;;;;;5024381;28;20041;-86
2022/06/14 09:29:14;;;;;;;7.65;1.50;;;17.50;99.90;;;;;;5029830;28;20574;-86
2022/06/14 09:31:58;;;;;;;2.60;0.82;;;17.40;99.90;;;;;;5029204;28;20045;-86
2022/06/14 09:34:43;;;;;;;3.25;0.88;;;17.40;99.90;;;;;;5042951;28;20052;-87
2022/06/14 09:37:14;;;;;;;3.67;1.20;;;17.50;99.90;;;;;;5026768;28;20037;-86
2022/06/14 09:40:16;;;;;;;3.30;0.90;;;17.50;99.90;;;;;;5011544;28;20041;-86
2022/06/14 09:43:15;;;;;;;3.67;0.93;;;17.70;99.90;;;;;;5050525;28;20048;-86
2022/06/14 09:45:57;;;;;;;3.58;1.15;;;17.80;99.90;;;;;;5009926;28;20878;-86
2022/06/14 09:49:10;;;;;;;1.40;0.80;;;17.80;99.90;;;;;;5050987;28;20033;-86
2022/06/14 09:52:03;;;;;;;6.40;1.27;;;17.80;99.90;;;;;;5005615;28;20665;-86
2022/06/14 09:55:31;;;;;;;1.58;0.75;;;17.80;99.90;;;;;;5030052;28;20041;-85
2022/06/14 09:58:02;;;;;;;3.42;0.90;;;17.70;99.90;;;;;;4917242;29;20053;-86
2022/06/14 10:00:36;;;;;;;5.55;1.10;;;17.80;99.90;;;;;;5030863;28;20125;-86
2022/06/14 10:03:23;;;;;;;1.52;0.68;;;18.00;99.90;;;;;;5028416;28;20047;-86
2022/06/14 10:06:01;;;;;;;;;;;18.10;99.90;;;;;;5028611;28;20047;-86
2022/06/14 10:08:40;;;;;;;2.33;0.90;;;18.20;99.90;;;;;;5032961;28;19917;-86
2022/06/14 10:11:46;;;;;;;2.30;0.90;;;18.20;99.90;;;;;;5028891;28;20063;-85
2022/06/14 10:14:29;;;;;;;1.75;0.80;;;18.10;99.90;;;;;;5049843;28;20106;-86
2022/06/14 10:17:01;;;;;;;3.58;0.70;;;17.90;99.90;;;;;;5027864;28;20041;-86
2022/06/14 10:19:47;;;;;;;3.67;0.50;;;17.90;99.90;;;;;;5024635;28;20063;-86
2022/06/14 10:22:22;;;;;;;1.50;0.68;;;17.80;99.90;;;;;;5030523;28;20050;-87
2022/06/14 10:24:59;;;;;;;4.18;0.68;;;17.70;99.90;;;;;;5027452;28;20499;-86
2022/06/14 10:31:06;;;;;;;2.47;0.93;;;17.70;99.90;;;;;;5045381;28;20045;-86
2022/06/14 10:33:46;;;;;;;5.90;0.80;;;17.80;99.90;;;;;;5022853;28;20044;-87
2022/06/14 10:36:39;;;;;;;3.80;1.08;;;18.00;99.90;;;;;;5045759;28;20041;-86
2022/06/14 10:39:23;;;;;;;2.45;0.80;;;18.20;99.90;;;;;;5026652;28;20044;-86
2022/06/14 10:41:57;;;;;;;1.33;0.50;;;18.30;99.90;;;;;;5025547;28;20037;-86
2022/06/14 10:44:51;;;;;;;2.55;0.65;;;18.40;99.90;;;;;;5031196;28;20067;-87
2022/06/14 10:47:55;;;;;;;2.78;0.60;;;18.60;99.90;;;;;;5030397;28;20081;-86
2022/06/14 10:50:35;;;;;;;3.25;0.70;;;18.60;99.90;;;;;;5018540;28;20057;-86
2022/06/14 10:53:39;;;;;;;1.23;0.82;;;18.50;99.90;;;;;;5030004;28;20450;-84
2022/06/14 10:56:32;;;;;;;3.33;0.80;;;18.40;99.90;;;;;;5012639;28;20049;-86
2022/06/14 10:59:06;;;;;;;7.43;1.25;;;18.30;99.90;;;;;;5025696;28;20386;-86
2022/06/14 11:01:58;;;;;;;1.67;0.68;;;18.20;99.90;;;;;;5028053;28;20055;-86
2022/06/14 11:04:30;;;;;;;2.92;0.88;;;18.10;99.90;;;;;;5014876;28;20045;-86
2022/06/14 11:07:04;;;;;;;3.95;0.73;;;18.10;99.90;;;;;;5048813;28;20406;-85
2022/06/14 11:09:58;;;;;;;2.25;0.60;;;18.00;99.90;;;;;;5027399;28;20041;-86
2022/06/14 11:13:11;;;;;;;0.98;0.43;;;18.00;99.90;;;;;;5043136;28;20044;-84
2022/06/14 11:16:02;;;;;;;3.58;1.17;;;18.00;99.90;;;;;;5002869;28;20057;-86
2022/06/14 11:18:50;;;;;;;3.17;0.60;;;18.00;99.90;;;;;;5026500;28;20045;-84
2022/06/14 11:21:43;;;;;;;2.15;0.73;;;17.90;99.90;;;;;;5036962;28;20037;-86
2022/06/14 11:24:45;;;;;;;3.20;0.82;;;17.90;99.90;;;;;;5027119;28;20115;-86
2022/06/14 11:27:24;;;;;;;2.05;0.57;;;17.90;99.90;;;;;;5048901;28;20041;-86
2022/06/14 11:30:07;;;;;;;3.13;0.60;;;18.00;99.90;;;;;;5032083;28;20037;-86
2022/06/14 11:33:02;;;;;;;2.38;0.90;;;18.00;99.90;;;;;;5024414;28;20044;-85
2022/06/14 11:35:44;;;;;;;3.42;0.82;;;17.90;99.90;;;;;;5025957;28;20045;-83
2022/06/14 11:38:27;;;;;;;3.55;0.82;;;17.90;99.90;;;;;;5029289;28;20241;-83
2022/06/14 11:40:59;;;;;;;4.70;1.00;;;17.90;99.90;;;;;;5013446;28;20120;-84
2022/06/14 11:43:40;;;;;;;3.65;1.23;;;17.90;99.90;;;;;;5012605;28;20395;-84
2022/06/14 11:46:24;;;;;;;1.88;0.77;;;18.00;99.90;;;;;;5033447;28;20047;-86
2022/06/14 11:49:30;;;;;;;1.55;0.80;;;18.00;99.90;;;;;;5045452;28;20037;-86
2022/06/14 11:52:18;;;;;;;2.92;0.90;;;18.00;99.90;;;;;;4996044;28;20041;-86
2022/06/14 11:55:15;;;;;;;1.98;0.68;;;18.10;99.90;;;;;;5021915;28;20053;-86
2022/06/14 11:57:48;;;;;;;2.50;0.80;;;18.10;99.90;;;;;;5039034;28;20040;-86
2022/06/14 12:00:18;;;;;;;2.17;1.02;;;18.20;99.90;;;;;;5045964;28;20535;-85
2022/06/14 12:02:54;;;;;;;4.65;0.93;;;18.30;99.90;;;;;;5048484;28;20141;-87
2022/06/14 12:05:39;;;;;;;2.63;1.33;;;18.30;99.90;;;;;;5032911;28;20218;-86
2022/06/14 12:08:10;;;;;;;2.33;1.10;;;18.30;99.90;;;;;;5023118;28;20095;-86
2022/06/14 12:10:52;;;;;;;1.92;0.65;;;18.30;99.90;;;;;;5030260;28;20045;-86
2022/06/14 12:13:29;;;;;;;3.10;1.17;;;18.40;99.90;;;;;;5036509;28;20048;-86
2022/06/14 12:16:32;;;;;;;2.75;0.93;;;18.40;99.90;;;;;;5045257;28;20037;-86
2022/06/14 12:19:08;;;;;;;4.13;1.15;;;18.50;99.90;;;;;;5047901;28;20032;-86
2022/06/14 12:22:26;;;;;;;4.40;0.90;;;18.50;99.90;;;;;;5032889;28;20158;-86
2022/06/14 12:28:17;;;;;;;3.47;0.98;;;18.50;99.90;;;;;;5032516;28;20071;-86
2022/06/14 12:30:46;;;;;;;1.85;0.70;;;18.40;99.90;;;;;;5013192;28;20086;-86
2022/06/14 12:33:31;;;;;;;2.78;0.75;;;18.40;99.90;;;;;;5030232;28;20098;-86
2022/06/14 12:36:03;;;;;;;2.13;0.95;;;18.40;99.90;;;;;;5032073;28;20037;-86
2022/06/14 12:38:34;;;;;;;3.17;1.00;;;18.40;99.90;;;;;;5024987;28;20383;-86
2022/06/14 12:41:32;;;;;;;3.38;0.80;;;18.40;99.90;;;;;;5046040;28;20044;-86
2022/06/14 12:44:20;;;;;;;2.05;0.80;;;18.40;99.90;;;;;;5025646;28;20044;-86
2022/06/14 12:46:49;;;;;;;5.40;1.55;;;18.50;99.90;;;;;;5029367;28;20592;-86
2022/06/14 12:49:39;;;;;;;2.95;1.02;;;18.50;99.90;;;;;;5005723;28;20121;-84
2022/06/14 12:52:15;;;;;;;3.42;1.27;;;18.50;99.90;;;;;;5028477;28;20472;-85
2022/06/14 12:54:44;;;;;;;;;;;18.50;99.90;;;;;;5029845;28;20723;-86
2022/06/14 12:57:28;;;;;;;2.65;0.90;;;18.40;99.90;;;;;;5025123;28;19982;-86
2022/06/14 13:00:15;;;;;;;2.08;0.60;;;18.40;99.90;;;;;;5040077;28;20494;-86
2022/06/14 13:03:02;;;;;;;4.00;1.00;;;18.50;99.90;;;;;;5024846;28;20091;-86
2022/06/14 13:05:31;;;;;;;;;;;18.50;99.90;;;;;;5047268;28;20498;-86
2022/06/14 13:08:03;;;;;;;3.08;0.93;;;18.40;99.90;;;;;;5047863;28;19923;-86
2022/06/14 13:11:03;;;;;;;1.98;0.85;;;18.40;99.90;;;;;;5048033;28;20064;-86
2022/06/14 13:14:17;;;;;;;2.97;0.90;;;18.40;99.90;;;;;;5009154;28;20041;-86
2022/06/14 13:16:42;;;;;;;3.53;0.70;;;18.40;99.90;;;;;;5047848;28;20414;-86
2022/06/14 13:19:43;;;;;;;3.88;1.40;;;18.40;99.90;;;;;;5041693;28;20044;-86
2022/06/14 13:22:30;;;;;;;1.98;1.00;;;18.50;99.90;;;;;;5005473;28;20074;-86
2022/06/14 13:25:21;;;;;;;5.25;1.10;;;18.40;99.90;;;;;;5009154;28;20143;-86
2022/06/14 13:28:11;;;;;;;4.05;1.10;;;18.50;99.90;;;;;;5030072;28;20473;-86
2022/06/14 13:30:58;;;;;;;3.15;0.90;;;18.60;99.90;;;;;;5031412;28;20079;-87
2022/06/14 13:34:04;;;;;;;1.17;0.65;;;18.70;99.90;;;;;;5042576;28;20485;-86
2022/06/14 13:36:41;;;;;;;3.15;1.05;;;18.80;99.90;;;;;;5029160;28;20068;-86
2022/06/14 13:39:10;;;;;;;2.47;1.05;;;19.00;99.90;;;;;;5025874;28;20143;-85
2022/06/14 13:42:00;;;;;;;3.25;1.63;;;19.20;99.90;;;;;;5007142;28;20037;-85
2022/06/14 13:44:48;;;;;;;2.35;0.95;;;19.30;99.90;;;;;;5017276;28;20044;-86
2022/06/14 13:47:37;;;;;;;2.35;1.02;;;19.50;99.90;;;;;;5043429;28;20446;-86
2022/06/14 13:50:19;;;;;;;3.42;1.17;;;19.70;99.90;;;;;;5030345;28;20037;-87
2022/06/14 13:53:01;;;;;;;3.97;0.90;;;19.90;99.90;;;;;;5026693;28;20553;-86
2022/06/14 13:55:41;;;;;;;1.75;1.05;;;20.00;99.90;;;;;;5049119;28;20040;-86
2022/06/14 13:58:16;;;;;;;3.00;1.13;;;19.90;99.90;;;;;;5025747;28;20111;-86
2022/06/14 14:01:02;;;;;;;3.15;1.13;;;19.90;99.90;;;;;;5021537;28;20048;-86
2022/06/14 14:03:40;;;;;;;2.93;0.90;;;20.00;99.90;;;;;;5048525;28;20041;-86
2022/06/14 14:06:13;;;;;;;2.22;0.90;;;20.00;99.90;;;;;;5022704;28;20037;-87
2022/06/14 14:08:47;;;;;;;3.25;0.93;;;20.00;99.90;;;;;;5046358;28;20103;-86
2022/06/14 14:11:47;;;;;;;3.28;1.20;;;19.90;99.90;;;;;;5028382;28;20037;-86
2022/06/14 14:14:41;;;;;;;3.53;1.30;;;19.70;94.40;;;;;;5027017;28;20037;-86
2022/06/14 14:17:07;;;;;;;3.08;1.27;;;19.50;99.90;;;;;;5020577;28;20076;-85
2022/06/14 14:20:17;;;;;;;2.08;1.00;;;19.50;99.90;;;;;;5027898;28;20083;-88